Aeroporto :
LOGIN :

Iscrizione | Disclaimer

   EN    FR    IT 

 










Sommario :    VFR   VFR Marginale   IFR   IFR Intensivo   IFR Molto Intensivo
Visibilità : 
Base nubi : 
>= 8 km
>= 3000ft
5 / 8 km
1000 / 3000 ft
1500m / 5 km
500 / 1000 ft
800 / 1500m
200 / 500 ft
< 800m
< 200 ft
Simboli :   Temporali  Nebbia  Neve Forte  Precipitazioni Forti  Vento > 20 kt
SIGMETs :   Varie  Temporali  Ghiacco  Turbolenza  Onda orograficha  Ceneri Vulcaniche






- Altitudine del aeroporto : 146 ft
- Codice IATA : RKE


EKRK - Roskilde Tune

ULTIMO METAR :
  • 060620Z AUTO 13008KT 9999 NCD 21/13 Q1020

METARs OBSOLETI :
  • 060550Z AUTO 14006KT 9999 NCD 21/14 Q1020
  • 060520Z AUTO 12003KT 9999 NCD 19/15 Q1020
  • 060450Z AUTO 13002KT 9999 NCD 16/15 Q1020
  • 060420Z AUTO 14003KT 9999 FEW110/// 15/14 Q1020
  • 060350Z AUTO 12005KT 9999 SCT110/// 14/13 Q1020

TAF TAF EKRK
Valido dal 06 a 06 ore il 06 a 15 ore UTC


060518Z 0606/0615 15006KT CAVOK



MetMap, La meteo Aeronautica in un colpo d'occhio ! - Copyright ORBIFLY Dicembre 2007 - Disclaimer

ORBIFLY MET'MAP TEAM :

Programmazione e sviluppo : Alexandra Zaïnal
Concezione : Baudouin d'Aumeries
Aiuto per la programmazione : Marc-Olivier Méhu
Supporto tecnico e logistico : Manuel Goepfert
Aiuto per la traduzione : Arnaldo La Scala

Contatto : metmap@orbifly.com




FONTI E CREDITI :

   NOAA